Bookmark and Share
Track history (hours):
 

Kitty C

Last reported at 2014-Apr-16 15:33 UTC. Time now 2014-Apr-16 16:08 UTC.
Position N 37°56' W 008°51'.

Length 106 m; draft 4.2 m.

Type: Cargo ship. MMSI: 235085464.

NotesDate/timePositionNaut miles runAvg speedWind from/ knotsBaromVisibWave heightAir tempDewpointWater temp
2014-Apr-16 15:33N 37°56' W 008°51'0 0.0
2014-Apr-16 14:33N 37°56' W 008°51'0 0.0
2014-Apr-16 13:33N 37°56' W 008°51'0 0.0
2014-Apr-16 12:33N 37°56' W 008°51'0 0.0
2014-Apr-16 11:33N 37°56' W 008°51'0 0.0
2014-Apr-16 10:33N 37°56' W 008°51'0 0.0
2014-Apr-16 09:33N 37°56' W 008°51'0 0.0
2014-Apr-16 08:33N 37°56' W 008°51'0 0.0
2014-Apr-16 07:33N 37°56' W 008°51'0 0.0
2014-Apr-16 06:33N 37°56' W 008°51'0 0.0
2014-Apr-16 05:33N 37°56' W 008°51'0 0.0
2014-Apr-16 04:33N 37°56' W 008°51'0 0.0
2014-Apr-16 03:33N 37°56' W 008°51'0 0.0
2014-Apr-16 02:33N 37°56' W 008°51'0 0.0
2014-Apr-16 01:33N 37°56' W 008°51'0 0.0
2014-Apr-16 00:33N 37°56' W 008°51'0 0.0
2014-Apr-15 23:33N 37°56' W 008°51'0 0.0
2014-Apr-15 22:33N 37°56' W 008°51'1 0.6
2014-Apr-15 21:33N 37°56' W 008°52'7 6.6
2014-Apr-15 20:33N 37°59' W 008°60'1110.6
2014-Apr-15 19:33N 38°05' W 009°11'1111.1
2014-Apr-15 18:33N 38°11' W 009°23'1111.0
2014-Apr-15 17:33N 38°17' W 009°34'1110.9
2014-Apr-15 16:33N 38°24' W 009°45'  
2014-Apr-09 18:16N 49°58' W 002°52'68 8.7
2014-Apr-09 10:24N 50°18' W 001°10'58 9.9
2014-Apr-09 04:32N 50°35' E 000°18'8 8.5
2014-Apr-09 03:33N 50°37' E 000°30'9 8.7
2014-Apr-09 02:33N 50°42' E 000°42'9 9.3
2014-Apr-09 01:33N 50°47' E 000°54'1010.0
2014-Apr-09 00:34N 50°53' E 001°06'1010.1
2014-Apr-08 23:33N 51°00' E 001°19'10 9.7
2014-Apr-08 22:33N 51°06' E 001°31'9 9.2
2014-Apr-08 21:34N 51°12' E 001°42'9 8.5
2014-Apr-08 20:34N 51°19' E 001°50'9 8.6
2014-Apr-08 19:34N 51°26' E 001°58'9 8.7
2014-Apr-08 18:34N 51°33' E 002°06'9 9.0
2014-Apr-08 17:33N 51°40' E 002°16'10 9.5
2014-Apr-08 16:33N 51°47' E 002°25'132 8.2
2014-Apr-08 00:33N 53°29' E 004°42'8 7.3
2014-Apr-07 23:31N 53°32' E 004°54'8 7.8
2014-Apr-07 22:33N 53°34' E 005°06'8 8.4
2014-Apr-07 21:34N 53°37' E 005°19'9 9.3
2014-Apr-07 20:34N 53°40' E 005°34'1010.2
2014-Apr-07 19:32N 53°43' E 005°51'57 9.4
2014-Apr-07 13:30N 53°59' E 007°23'8 8.1
2014-Apr-07 12:34N 54°01' E 007°36'8 8.4
2014-Apr-07 11:33N 54°01' E 007°50'9 9.1
2014-Apr-07 10:33N 54°01' E 008°06'10 9.8
2014-Apr-07 09:33N 53°60' E 008°22'1211.6
2014-Apr-07 08:33N 53°55' E 008°41'1110.8
2014-Apr-07 07:34N 53°51' E 008°57'7 7.3
2014-Apr-07 06:33N 53°54' E 009°09'2 1.6
2014-Apr-07 05:33N 53°55' E 009°11'0 0.0
2014-Apr-07 04:33N 53°55' E 009°11'0 0.0
2014-Apr-07 03:33N 53°55' E 009°11'0 0.0
2014-Apr-07 02:34N 53°55' E 009°11'2 1.7
2014-Apr-07 01:33N 53°56' E 009°13'8 7.6
2014-Apr-07 00:34N 54°03' E 009°18'8 7.7
2014-Apr-06 23:33N 54°10' E 009°25'4 3.8
2014-Apr-06 22:31N 54°11' E 009°31'  

Dump ship's entire track history

sailing weather and tide predictions

Kitty C — 2EIQ6 — position and weather